createdAt,value
2022-10-23T00:02:42.197Z,99069.72
2022-10-23T00:05:28.946Z,99062.63
2022-10-23T00:08:14.544Z,99074.53
2022-10-23T00:10:59.911Z,99068.97
2022-10-23T00:13:46.360Z,99066.66
2022-10-23T00:16:32.596Z,99064.28
2022-10-23T00:19:18.336Z,99066.28
2022-10-23T00:22:03.838Z,99058.38
2022-10-23T00:24:49.144Z,99060.38
2022-10-23T00:27:34.781Z,99062.78
2022-10-23T00:30:20.578Z,99065.16
2022-10-23T00:33:06.242Z,99062.03
2022-10-23T00:35:51.843Z,99064.81
2022-10-23T00:38:37.740Z,99066.44
2022-10-23T00:41:26.122Z,99058.13
2022-10-23T00:44:31.367Z,99053.41
2022-10-23T00:47:17.576Z,99058.97
2022-10-23T00:50:03.048Z,99059.78
2022-10-23T00:52:51.278Z,99061.38
2022-10-23T00:55:38.412Z,99063.78
2022-10-23T00:58:24.600Z,99053.88
2022-10-23T01:01:20.670Z,99057.06
2022-10-23T01:04:07.503Z,99055.09
2022-10-23T01:07:17.583Z,99060.66
2022-10-23T01:10:15.548Z,99061.47
2022-10-23T01:13:34.244Z,99062.28
2022-10-23T01:16:46.261Z,99062.28
2022-10-23T01:20:07.094Z,99063.50
2022-10-23T01:23:17.050Z,99069.03
2022-10-23T01:26:11.628Z,99065.09
2022-10-23T01:29:15.173Z,99063.50
2022-10-23T01:32:15.175Z,99062.72
2022-10-23T01:35:13.254Z,99065.50
2022-10-23T01:38:12.542Z,99069.47
2022-10-23T01:41:03.154Z,99062.38
2022-10-23T01:44:01.740Z,99066.31
2022-10-23T01:46:53.298Z,99060.78
2022-10-23T01:49:40.945Z,99065.53
2022-10-23T01:52:26.688Z,99068.75
2022-10-23T01:55:14.479Z,99057.66
2022-10-23T01:58:02.857Z,99054.53
2022-10-23T02:00:59.044Z,99056.09
2022-10-23T02:03:45.481Z,99059.25
2022-10-23T02:06:30.605Z,99051.38
2022-10-23T02:09:16.138Z,99043.06
2022-10-23T02:12:19.273Z,99043.06
2022-10-23T02:15:28.843Z,99050.22
2022-10-23T02:18:41.811Z,99041.53
2022-10-23T02:21:53.277Z,99054.59
2022-10-23T02:25:01.593Z,99037.19
2022-10-23T02:27:55.215Z,99024.56
2022-10-23T02:30:49.174Z,99028.50
2022-10-23T02:33:36.053Z,99033.28
2022-10-23T02:36:21.821Z,99047.91
2022-10-23T02:39:07.685Z,99049.91
2022-10-23T02:42:20.468Z,99030.91
2022-10-23T02:45:11.429Z,99031.72
2022-10-23T02:48:05.968Z,99031.34
2022-10-23T02:51:21.163Z,99028.56
2022-10-23T02:54:13.148Z,99034.13
2022-10-23T02:57:09.525Z,99028.56
2022-10-23T03:00:08.166Z,99036.88
2022-10-23T03:03:02.950Z,99029.75
2022-10-23T03:05:50.958Z,99019.44
2022-10-23T03:08:45.070Z,99027.75
2022-10-23T03:11:30.917Z,99028.56
2022-10-23T03:14:16.118Z,99030.13
2022-10-23T03:17:01.274Z,99029.34
2022-10-23T03:19:46.447Z,99026.19
2022-10-23T03:22:32.902Z,99021.41
2022-10-23T03:25:19.200Z,99012.31
2022-10-23T03:28:04.576Z,99019.41
2022-10-23T03:30:53.180Z,99017.84
2022-10-23T03:33:38.676Z,99015.09
2022-10-23T03:36:27.408Z,99012.31
2022-10-23T03:39:12.801Z,99008.34
2022-10-23T03:41:58.194Z,99015.09
2022-10-23T03:44:43.521Z,99005.56
2022-10-23T03:47:30.479Z,99023.78
2022-10-23T03:50:16.564Z,99018.22
2022-10-23T03:53:01.892Z,99015.47
2022-10-23T03:55:47.190Z,99023.78
2022-10-23T03:58:35.524Z,99021.00
2022-10-23T04:01:20.817Z,99021.00
2022-10-23T04:04:06.171Z,99022.97
2022-10-23T04:06:53.382Z,99020.19
2022-10-23T04:09:39.684Z,99008.72
2022-10-23T04:12:25.139Z,99007.16
2022-10-23T04:15:10.945Z,99017.03
2022-10-23T04:17:56.236Z,99008.72
2022-10-23T04:20:41.492Z,99007.50
2022-10-23T04:23:27.056Z,99004.72
2022-10-23T04:26:13.360Z,99010.69
2022-10-23T04:28:58.690Z,99019.78
2022-10-23T04:31:47.008Z,99018.22
2022-10-23T04:34:32.389Z,99019.78
2022-10-23T04:37:17.659Z,99009.91
2022-10-23T04:40:03.877Z,99008.72
2022-10-23T04:42:53.705Z,99008.72
2022-10-23T04:45:39.994Z,99002.38
2022-10-23T04:48:28.345Z,99004.72
2022-10-23T04:51:33.344Z,99011.47
2022-10-23T04:54:39.058Z,99011.47
2022-10-23T04:57:41.924Z,99019.78
2022-10-23T05:00:28.729Z,99022.56
2022-10-23T05:03:16.001Z,99013.47
2022-10-23T05:06:02.444Z,99006.72
2022-10-23T05:09:04.117Z,99009.91
2022-10-23T05:12:08.588Z,99025.34
2022-10-23T05:14:54.593Z,99014.25
2022-10-23T05:17:44.082Z,99012.69
2022-10-23T05:20:34.185Z,99014.25
2022-10-23T05:23:25.129Z,99009.06
2022-10-23T05:26:18.972Z,99011.84
2022-10-23T05:29:06.734Z,99015.75
2022-10-23T05:31:55.902Z,99007.03
2022-10-23T05:34:42.662Z,99016.50
2022-10-23T05:37:29.454Z,99003.78
2022-10-23T05:40:26.801Z,99005.72
2022-10-23T05:43:18.769Z,98997.78
2022-10-23T05:46:10.832Z,98999.75
2022-10-23T05:49:20.225Z,98996.91
2022-10-23T05:52:14.756Z,98992.50
2022-10-23T05:55:19.141Z,98996.88
2022-10-23T05:58:15.722Z,98995.66
2022-10-23T06:01:24.478Z,99002.00
2022-10-23T06:04:17.962Z,99003.50
2022-10-23T06:07:16.940Z,98997.53
2022-10-23T06:10:06.218Z,99005.84
2022-10-23T06:12:55.297Z,98993.84
2022-10-23T06:15:40.710Z,98999.41
2022-10-23T06:18:37.249Z,98997.00
2022-10-23T06:21:28.392Z,99000.22
2022-10-23T06:24:14.473Z,99000.63
2022-10-23T06:27:05.887Z,99001.03
2022-10-23T06:29:57.396Z,99004.59
2022-10-23T06:32:43.663Z,99003.75
2022-10-23T06:35:31.035Z,99004.13
2022-10-23T06:38:16.548Z,99008.47
2022-10-23T06:41:14.957Z,99010.34
2022-10-23T06:44:03.963Z,99010.28
2022-10-23T06:47:14.410Z,99011.06
2022-10-23T06:50:19.512Z,99021.31
2022-10-23T06:53:07.047Z,99011.03
2022-10-23T06:56:01.126Z,99012.56
2022-10-23T06:58:47.394Z,99021.25
2022-10-23T07:01:36.153Z,99007.38
2022-10-23T07:04:22.373Z,99017.63
2022-10-23T07:07:08.922Z,99013.22
2022-10-23T07:10:03.380Z,99012.41
2022-10-23T07:13:03.355Z,99019.81
2022-10-23T07:16:24.052Z,99019.38
2022-10-23T07:19:11.553Z,99013.06
2022-10-23T07:22:29.568Z,99019.38
2022-10-23T07:25:28.370Z,99010.63
2022-10-23T07:28:13.779Z,99011.41
2022-10-23T07:30:59.932Z,99011.00
2022-10-23T07:34:00.556Z,99010.59
2022-10-23T07:36:46.247Z,99003.81
2022-10-23T07:39:31.767Z,99001.41
2022-10-23T07:42:17.620Z,99005.75
2022-10-23T07:45:04.570Z,98996.63
2022-10-23T07:47:52.040Z,99001.00
2022-10-23T07:50:39.538Z,99005.69
2022-10-23T07:53:25.979Z,98998.94
2022-10-23T07:56:19.349Z,98995.31
2022-10-23T07:59:23.583Z,98997.22
2022-10-23T08:02:13.900Z,98994.53
2022-10-23T08:05:00.724Z,99002.41
2022-10-23T08:07:53.004Z,99000.50
2022-10-23T08:10:38.326Z,99004.84
2022-10-23T08:13:26.958Z,99000.91
2022-10-23T08:16:29.564Z,98997.34
2022-10-23T08:19:21.961Z,98998.59
2022-10-23T08:22:10.778Z,98993.84
2022-10-23T08:24:56.447Z,98983.63
2022-10-23T08:27:43.413Z,98981.25
2022-10-23T08:30:29.103Z,98981.69
2022-10-23T08:33:16.899Z,98987.66
2022-10-23T08:36:02.792Z,98987.31
2022-10-23T08:38:54.111Z,98990.50
2022-10-23T08:41:43.103Z,98985.38
2022-10-23T08:44:53.997Z,98987.34
2022-10-23T08:47:53.295Z,98976.69
2022-10-23T08:50:46.570Z,98979.88
2022-10-23T08:53:54.162Z,98979.53
2022-10-23T08:56:42.246Z,98967.66
2022-10-23T08:59:34.264Z,98955.41
2022-10-23T09:02:22.431Z,98956.59
2022-10-23T09:05:15.784Z,98961.78
2022-10-23T09:08:01.216Z,98967.34
2022-10-23T09:10:58.837Z,98965.78
2022-10-23T09:13:55.327Z,98963.44
2022-10-23T09:16:52.417Z,98946.00
2022-10-23T09:19:38.023Z,98941.69
2022-10-23T09:22:23.455Z,98950.00
2022-10-23T09:25:21.464Z,98953.19
2022-10-23T09:28:07.182Z,98953.97
2022-10-23T09:30:53.350Z,98952.03
2022-10-23T09:33:39.668Z,98960.38
2022-10-23T09:36:27.525Z,98956.00
2022-10-23T09:39:26.569Z,98956.44
2022-10-23T09:42:26.175Z,98957.22
2022-10-23T09:45:27.540Z,98949.31
2022-10-23T09:48:18.463Z,98955.66
2022-10-23T09:51:25.651Z,98948.53
2022-10-23T09:54:15.484Z,98945.41
2022-10-23T09:57:23.568Z,98954.50
2022-10-23T10:00:15.128Z,98945.41
2022-10-23T10:03:05.254Z,98950.19
2022-10-23T10:06:04.902Z,98954.91
2022-10-23T10:08:56.586Z,98951.38
2022-10-23T10:11:47.818Z,98953.38
2022-10-23T10:14:42.379Z,98954.59
2022-10-23T10:17:43.345Z,98948.69
2022-10-23T10:21:04.933Z,98943.13
2022-10-23T10:24:00.957Z,98943.13
2022-10-23T10:26:51.161Z,98945.91
2022-10-23T10:29:53.754Z,98938.78
2022-10-23T10:33:01.474Z,98931.22
2022-10-23T10:35:59.344Z,98922.13
2022-10-23T10:38:53.590Z,98924.13
2022-10-23T10:42:07.844Z,98915.03
2022-10-23T10:45:05.774Z,98916.22
2022-10-23T10:48:32.593Z,98912.25
2022-10-23T10:51:53.165Z,98905.13
2022-10-23T10:54:53.671Z,98898.03
2022-10-23T10:57:47.315Z,98896.44
2022-10-23T11:00:34.387Z,98890.91
2022-10-23T11:03:42.721Z,98892.13
2022-10-23T11:06:34.154Z,98886.59
2022-10-23T11:09:29.170Z,98904.00
2022-10-23T11:12:28.058Z,98898.88
2022-10-23T11:15:22.481Z,98891.75
2022-10-23T11:18:20.618Z,98887.78
2022-10-23T11:21:31.066Z,98878.69
2022-10-23T11:24:53.454Z,98872.34
2022-10-23T11:28:10.308Z,98859.72
2022-10-23T11:31:31.849Z,98858.50
2022-10-23T11:34:31.086Z,98858.91
2022-10-23T11:37:22.382Z,98858.91
2022-10-23T11:40:08.046Z,98851.03
2022-10-23T11:42:53.280Z,98850.22
2022-10-23T11:45:40.251Z,98839.16
2022-10-23T11:48:44.711Z,98843.50
2022-10-23T11:51:34.920Z,98835.59
2022-10-23T11:54:24.615Z,98834.81
2022-10-23T11:57:15.096Z,98839.16
2022-10-23T12:00:00.853Z,98849.88
2022-10-23T12:02:57.014Z,98840.78
2022-10-23T12:05:45.741Z,98838.78
2022-10-23T12:08:34.932Z,98838.44
2022-10-23T12:11:42.785Z,98834.09
2022-10-23T12:14:49.880Z,98823.78
2022-10-23T12:17:37.900Z,98821.44
2022-10-23T12:21:00.166Z,98818.25
2022-10-23T12:23:48.385Z,98811.16
2022-10-23T12:27:01.796Z,98802.47
2022-10-23T12:30:11.311Z,98803.69
2022-10-23T12:33:09.154Z,98798.16
2022-10-23T12:36:22.611Z,98788.25
2022-10-23T12:39:27.771Z,98791.03
2022-10-23T12:42:25.995Z,98772.38
2022-10-23T12:45:36.976Z,98772.84
2022-10-23T12:48:24.521Z,98766.06
2022-10-23T12:51:22.544Z,98761.75
2022-10-23T12:54:21.424Z,98762.94
2022-10-23T12:57:41.813Z,98760.94
2022-10-23T13:00:27.156Z,98760.16
2022-10-23T13:03:13.364Z,98757.78
2022-10-23T13:06:04.031Z,98761.38
2022-10-23T13:08:50.126Z,98756.63
2022-10-23T13:12:04.556Z,98747.53
2022-10-23T13:15:00.142Z,98750.31
2022-10-23T13:18:02.308Z,98739.22
2022-10-23T13:20:53.557Z,98738.38
2022-10-23T13:23:41.917Z,98734.84
2022-10-23T13:26:45.392Z,98737.59
2022-10-23T13:29:34.497Z,98736.06
2022-10-23T13:32:25.564Z,98735.28
2022-10-23T13:35:22.332Z,98727.75
2022-10-23T13:38:08.709Z,98728.16
2022-10-23T13:41:00.098Z,98727.75
2022-10-23T13:43:47.534Z,98731.69
2022-10-23T13:46:33.301Z,98724.19
2022-10-23T13:49:19.350Z,98718.66
2022-10-23T13:52:05.593Z,98720.63
2022-10-23T13:54:51.019Z,98728.94
2022-10-23T13:57:36.563Z,98723.38
2022-10-23T14:00:21.951Z,98726.97
2022-10-23T14:03:07.208Z,98718.28
2022-10-23T14:05:52.957Z,98717.06
2022-10-23T14:08:38.410Z,98714.72
2022-10-23T14:11:25.692Z,98705.97
2022-10-23T14:14:11.555Z,98709.50
2022-10-23T14:16:58.015Z,98701.22
2022-10-23T14:19:43.900Z,98694.91
2022-10-23T14:22:29.851Z,98692.53
2022-10-23T14:25:15.993Z,98692.53
2022-10-23T14:28:02.022Z,98692.53
2022-10-23T14:30:47.660Z,98691.34
2022-10-23T14:33:33.734Z,98694.13
2022-10-23T14:39:10.580Z,98690.50
2022-10-23T14:41:57.070Z,98690.94
2022-10-23T14:44:43.639Z,98690.13
2022-10-23T14:47:30.233Z,98682.69
2022-10-23T14:50:16.192Z,98682.25
2022-10-23T14:53:02.183Z,98671.94
2022-10-23T14:55:47.493Z,98671.09
2022-10-23T14:58:33.020Z,98673.88
2022-10-23T15:01:20.685Z,98660.38
2022-10-23T15:04:07.516Z,98664.75
2022-10-23T15:06:53.724Z,98655.19
2022-10-23T15:09:40.028Z,98654.34
2022-10-23T15:12:27.206Z,98659.41
2022-10-23T15:15:13.624Z,98654.63
2022-10-23T15:17:59.177Z,98660.13
2022-10-23T15:20:52.068Z,98649.81
2022-10-23T15:23:40.344Z,98653.28
2022-10-23T15:26:25.897Z,98650.06
2022-10-23T15:29:12.671Z,98643.31
2022-10-23T15:31:59.511Z,98640.03
2022-10-23T15:34:44.959Z,98640.38
2022-10-23T15:37:30.583Z,98642.28
2022-10-23T15:40:16.268Z,98634.78
2022-10-23T15:43:01.897Z,98647.00
2022-10-23T15:45:47.289Z,98652.91
2022-10-23T15:48:33.467Z,98656.81
2022-10-23T15:51:19.965Z,98648.38
2022-10-23T15:54:17.520Z,98636.09
2022-10-23T15:57:04.270Z,98636.88
2022-10-23T15:59:51.522Z,98638.41
2022-10-23T16:02:37.638Z,98635.22
2022-10-23T16:05:23.285Z,98632.03
2022-10-23T16:08:08.389Z,98632.28
2022-10-23T16:10:54.414Z,98628.31
2022-10-23T16:13:40.017Z,98620.34
2022-10-23T16:16:26.032Z,98627.78
2022-10-23T16:19:12.290Z,98623.00
2022-10-23T16:21:57.752Z,98616.69
2022-10-23T16:24:43.354Z,98611.13
2022-10-23T16:27:28.864Z,98620.25
2022-10-23T16:30:16.377Z,98608.72
2022-10-23T16:33:03.546Z,98605.59
2022-10-23T16:36:14.581Z,98600.41
2022-10-23T16:39:20.689Z,98600.41
2022-10-23T16:42:24.802Z,98597.97
2022-10-23T16:45:27.751Z,98595.19
2022-10-23T16:48:13.249Z,98592.78
2022-10-23T16:50:58.584Z,98592.00
2022-10-23T16:53:44.887Z,98595.91
2022-10-23T16:56:31.409Z,98597.09
2022-10-23T16:59:17.051Z,98592.25
2022-10-23T17:02:03.247Z,98592.59
2022-10-23T17:04:49.288Z,98585.38
2022-10-23T17:07:35.031Z,98582.19
2022-10-23T17:10:20.699Z,98576.22
2022-10-23T17:13:06.489Z,98577.34
2022-10-23T17:16:02.280Z,98569.88
2022-10-23T17:18:48.480Z,98563.47
2022-10-23T17:21:36.998Z,98571.44
2022-10-23T17:24:22.975Z,98565.88
2022-10-23T17:27:10.866Z,98567.09
2022-10-23T17:29:56.410Z,98572.63
2022-10-23T17:32:42.743Z,98565.13
2022-10-23T17:35:28.755Z,98567.09
2022-10-23T17:38:18.315Z,98558.41
2022-10-23T17:41:05.185Z,98551.66
2022-10-23T17:43:51.408Z,98546.13
2022-10-23T17:46:37.656Z,98531.34
2022-10-23T17:49:24.534Z,98525.47
2022-10-23T17:52:14.544Z,98520.59
2022-10-23T17:55:00.891Z,98527.72
2022-10-23T17:57:46.857Z,98527.38
2022-10-23T18:00:33.035Z,98524.63
2022-10-23T18:03:19.912Z,98528.16
2022-10-23T18:06:17.453Z,98528.06
2022-10-23T18:09:07.063Z,98526.44
2022-10-23T18:11:53.296Z,98516.13
2022-10-23T18:14:39.128Z,98523.13
2022-10-23T18:17:24.487Z,98524.69
2022-10-23T18:20:12.068Z,98512.03
2022-10-23T18:22:58.440Z,98504.13
2022-10-23T18:25:44.150Z,98512.03
2022-10-23T18:28:30.753Z,98496.94
2022-10-23T18:31:17.642Z,98487.41
2022-10-23T18:34:07.751Z,98479.06
2022-10-23T18:36:54.673Z,98481.72
2022-10-23T18:39:40.268Z,98485.31
2022-10-23T18:42:26.387Z,98478.09
2022-10-23T18:45:13.631Z,98469.78
2022-10-23T18:47:59.703Z,98455.00
2022-10-23T18:50:45.363Z,98447.44
2022-10-23T18:53:31.007Z,98438.34
2022-10-23T18:56:22.671Z,98442.69
2022-10-23T18:59:13.698Z,98440.25
2022-10-23T19:01:59.460Z,98437.50
2022-10-23T19:04:45.035Z,98453.25
2022-10-23T19:07:30.806Z,98452.03
2022-10-23T19:10:19.717Z,98469.47
2022-10-23T19:13:06.013Z,98455.16
2022-10-23T19:15:52.071Z,98455.16
2022-10-23T19:18:39.918Z,98459.25
2022-10-23T19:21:33.151Z,98445.28
2022-10-23T19:24:21.216Z,98435.72
2022-10-23T19:27:08.282Z,98434.16
2022-10-23T19:29:55.499Z,98432.94
2022-10-23T19:32:42.873Z,98420.63
2022-10-23T19:35:28.664Z,98429.72
2022-10-23T19:38:14.371Z,98428.50
2022-10-23T19:41:00.037Z,98429.28
2022-10-23T19:43:45.661Z,98421.72
2022-10-23T19:46:31.000Z,98407.06
2022-10-23T19:49:17.422Z,98400.28
2022-10-23T19:52:03.214Z,98396.31
2022-10-23T19:54:48.977Z,98386.41
2022-10-23T19:57:35.516Z,98389.19
2022-10-23T20:00:21.816Z,98387.19
2022-10-23T20:03:07.663Z,98379.19
2022-10-23T20:05:53.170Z,98378.75
2022-10-23T20:08:39.986Z,98368.41
2022-10-23T20:11:28.338Z,98365.66
2022-10-23T20:14:14.012Z,98363.34
2022-10-23T20:17:00.232Z,98366.41
2022-10-23T20:19:48.248Z,98365.22
2022-10-23T20:22:34.278Z,98363.53
2022-10-23T20:25:20.533Z,98370.66
2022-10-23T20:28:08.197Z,98363.53
2022-10-23T20:30:55.846Z,98358.22
2022-10-23T20:33:41.829Z,98359.66
2022-10-23T20:36:31.257Z,98354.78
2022-10-23T20:39:24.635Z,98357.22
2022-10-23T20:42:10.001Z,98357.91
2022-10-23T20:44:55.581Z,98360.34
2022-10-23T20:47:40.817Z,98367.91
2022-10-23T20:50:26.011Z,98365.56
2022-10-23T20:53:11.335Z,98383.41
2022-10-23T20:55:56.597Z,98396.88
2022-10-23T20:58:42.094Z,98380.22
2022-10-23T21:01:29.138Z,98384.56
2022-10-23T21:04:15.697Z,98381.78
2022-10-23T21:07:10.492Z,98389.31
2022-10-23T21:09:56.522Z,98392.41
2022-10-23T21:12:42.139Z,98401.22
2022-10-23T21:15:28.425Z,98418.31
2022-10-23T21:18:26.496Z,98433.75
2022-10-23T21:21:20.786Z,98446.09
2022-10-23T21:24:09.717Z,98458.41
2022-10-23T21:26:55.053Z,98476.28
2022-10-23T21:29:40.398Z,98496.06
2022-10-23T21:32:25.636Z,98510.72
2022-10-23T21:35:10.795Z,98515.06
2022-10-23T21:37:57.247Z,98528.50
2022-10-23T21:40:42.418Z,98551.94
2022-10-23T21:43:27.626Z,98549.16
2022-10-23T21:46:17.405Z,98546.81
2022-10-23T21:49:03.507Z,98552.28
2022-10-23T21:51:49.048Z,98539.59
2022-10-23T21:54:34.386Z,98576.94
2022-10-23T21:57:19.943Z,98568.97
2022-10-23T22:00:06.966Z,98557.03
2022-10-23T22:02:57.797Z,98564.94
2022-10-23T22:05:43.047Z,98578.06
2022-10-23T22:08:28.501Z,98583.19
2022-10-23T22:11:15.105Z,98578.84
2022-10-23T22:14:00.904Z,98587.84
2022-10-23T22:16:47.183Z,98583.50
2022-10-23T22:19:32.616Z,98579.19
2022-10-23T22:22:18.002Z,98583.06
2022-10-23T22:25:03.490Z,98558.06
2022-10-23T22:27:48.923Z,98538.97
2022-10-23T22:30:36.765Z,98522.31
2022-10-23T22:33:22.128Z,98525.53
2022-10-23T22:36:07.903Z,98534.66
2022-10-23T22:38:54.307Z,98538.19
2022-10-23T22:41:39.518Z,98518.41
2022-10-23T22:44:24.661Z,98518.06
2022-10-23T22:47:10.063Z,98512.53
2022-10-23T22:49:55.254Z,98512.09
2022-10-23T22:52:40.566Z,98522.75
2022-10-23T22:55:25.729Z,98519.97
2022-10-23T22:58:10.990Z,98519.53
2022-10-23T23:01:09.224Z,98512.88
2022-10-23T23:03:58.203Z,98516.41
2022-10-23T23:06:46.482Z,98525.97
2022-10-23T23:09:31.787Z,98523.97
2022-10-23T23:12:17.060Z,98531.06
2022-10-23T23:15:02.571Z,98525.19
2022-10-23T23:17:48.008Z,98514.28
2022-10-23T23:20:33.976Z,98503.97
2022-10-23T23:23:19.833Z,98511.16
2022-10-23T23:26:08.807Z,98505.72
2022-10-23T23:28:54.978Z,98499.81
2022-10-23T23:31:40.256Z,98511.78
2022-10-23T23:34:25.798Z,98512.25
2022-10-23T23:37:11.039Z,98508.34
2022-10-23T23:39:56.396Z,98510.00
2022-10-23T23:42:42.042Z,98504.13
2022-10-23T23:45:27.890Z,98502.19
2022-10-23T23:50:58.760Z,98488.88
2022-10-23T23:53:44.139Z,98492.06
2022-10-23T23:56:29.545Z,98497.72
2022-10-23T23:59:14.796Z,98489.84
